createdAt,value
2018-12-31T00:00:33.093Z,15.50
2018-12-31T00:01:33.147Z,12.90
2018-12-31T00:02:33.066Z,16.70
2018-12-31T00:03:33.062Z,16.50
2018-12-31T00:04:33.075Z,18.00
2018-12-31T00:05:33.069Z,15.00
2018-12-31T00:06:33.028Z,16.20
2018-12-31T00:07:33.012Z,19.20
2018-12-31T00:08:33.007Z,15.30
2018-12-31T00:09:32.997Z,15.80
2018-12-31T00:10:33.010Z,19.30
2018-12-31T00:11:32.972Z,17.50
2018-12-31T00:12:32.994Z,16.30
2018-12-31T00:13:32.947Z,17.30
2018-12-31T00:14:32.937Z,18.30
2018-12-31T00:15:34.194Z,17.10
2018-12-31T00:16:32.921Z,14.10
2018-12-31T00:17:32.921Z,14.00
2018-12-31T00:18:32.894Z,19.20
2018-12-31T00:19:32.885Z,20.20
2018-12-31T00:20:32.874Z,68.10
2018-12-31T00:21:32.887Z,29.80
2018-12-31T00:22:32.851Z,21.60
2018-12-31T00:23:32.845Z,18.80
2018-12-31T00:24:32.837Z,15.70
2018-12-31T00:25:32.823Z,15.80
2018-12-31T00:26:32.835Z,16.20
2018-12-31T00:27:32.836Z,14.80
2018-12-31T00:28:32.790Z,18.10
2018-12-31T00:29:32.776Z,16.70
2018-12-31T00:30:32.773Z,15.60
2018-12-31T00:31:32.755Z,14.90
2018-12-31T00:32:32.749Z,12.80
2018-12-31T00:33:32.771Z,16.40
2018-12-31T00:34:32.722Z,13.90
2018-12-31T00:35:32.710Z,13.70
2018-12-31T00:36:32.699Z,14.10
2018-12-31T00:37:32.693Z,14.60
2018-12-31T00:38:32.679Z,17.20
2018-12-31T00:39:32.691Z,20.00
2018-12-31T00:40:32.661Z,13.80
2018-12-31T00:41:32.652Z,14.30
2018-12-31T00:42:32.642Z,13.80
2018-12-31T00:43:32.626Z,16.20
2018-12-31T00:44:32.660Z,14.10
2018-12-31T00:45:32.613Z,14.00
2018-12-31T00:46:32.595Z,14.30
2018-12-31T00:47:32.586Z,17.40
2018-12-31T00:48:32.570Z,13.60
2018-12-31T00:49:32.560Z,17.10
2018-12-31T00:50:32.576Z,17.30
2018-12-31T00:51:32.543Z,15.30
2018-12-31T00:52:32.531Z,18.30
2018-12-31T00:53:32.521Z,19.50
2018-12-31T00:54:32.511Z,16.90
2018-12-31T00:55:32.499Z,16.80
2018-12-31T00:56:32.511Z,16.00
2018-12-31T00:57:32.477Z,16.50
2018-12-31T00:58:32.468Z,14.80
2018-12-31T00:59:32.455Z,15.70
2018-12-31T01:00:32.441Z,15.30
2018-12-31T01:01:32.454Z,14.10
2018-12-31T01:02:32.447Z,15.80
2018-12-31T01:03:32.414Z,12.90
2018-12-31T01:04:32.401Z,18.60
2018-12-31T01:05:32.392Z,15.20
2018-12-31T01:06:32.392Z,11.20
2018-12-31T01:07:32.366Z,18.20
2018-12-31T01:08:32.383Z,15.90
2018-12-31T01:09:32.350Z,21.40
2018-12-31T01:10:32.336Z,16.50
2018-12-31T01:11:32.329Z,11.50
2018-12-31T01:12:32.356Z,18.30
2018-12-31T01:13:32.309Z,17.10
2018-12-31T01:14:32.295Z,13.50
2018-12-31T01:15:32.288Z,13.90
2018-12-31T01:16:32.270Z,16.20
2018-12-31T01:17:32.257Z,19.60
2018-12-31T01:18:32.257Z,13.90
2018-12-31T01:19:32.333Z,12.00
2018-12-31T01:20:32.228Z,15.40
2018-12-31T01:21:32.214Z,13.40
2018-12-31T01:22:32.207Z,12.10
2018-12-31T01:23:32.222Z,18.00
2018-12-31T01:24:32.186Z,15.80
2018-12-31T01:25:32.170Z,14.60
2018-12-31T01:26:32.163Z,16.80
2018-12-31T01:27:32.163Z,14.20
2018-12-31T01:28:32.144Z,20.90
2018-12-31T01:29:32.152Z,14.60
2018-12-31T01:30:32.121Z,12.30
2018-12-31T01:31:32.106Z,10.20
2018-12-31T01:32:32.096Z,15.50
2018-12-31T01:33:32.089Z,18.20
2018-12-31T01:34:32.105Z,14.20
2018-12-31T01:35:32.064Z,17.30
2018-12-31T01:36:32.080Z,18.40
2018-12-31T01:37:32.049Z,11.20
2018-12-31T01:38:32.036Z,16.10
2018-12-31T01:39:32.026Z,16.60
2018-12-31T01:40:32.024Z,18.10
2018-12-31T01:41:32.082Z,18.90
2018-12-31T01:42:32.005Z,17.30
2018-12-31T01:43:31.983Z,12.70
2018-12-31T01:44:31.975Z,16.20
2018-12-31T01:45:31.998Z,12.60
2018-12-31T01:46:31.943Z,15.30
2018-12-31T01:47:31.933Z,17.00
2018-12-31T01:48:31.923Z,14.40
2018-12-31T01:49:31.921Z,16.40
2018-12-31T01:50:31.906Z,12.50
2018-12-31T01:51:31.912Z,11.90
2018-12-31T01:52:31.882Z,17.40
2018-12-31T01:53:31.871Z,19.80
2018-12-31T01:54:31.863Z,15.20
2018-12-31T01:55:31.851Z,17.70
2018-12-31T01:56:31.869Z,14.70
2018-12-31T01:57:31.831Z,20.60
2018-12-31T01:58:31.836Z,11.70
2018-12-31T01:59:31.802Z,20.20
2018-12-31T02:00:31.856Z,24.50
2018-12-31T02:01:31.784Z,26.50
2018-12-31T02:02:31.794Z,30.40
2018-12-31T02:03:31.760Z,25.40
2018-12-31T02:04:31.754Z,24.30
2018-12-31T02:05:31.767Z,26.10
2018-12-31T02:06:31.727Z,16.40
2018-12-31T02:07:31.750Z,17.90
2018-12-31T02:08:31.731Z,21.00
2018-12-31T02:09:31.698Z,16.60
2018-12-31T02:10:31.711Z,14.50
2018-12-31T02:11:31.676Z,17.70
2018-12-31T02:12:31.668Z,17.30
2018-12-31T02:13:31.658Z,14.50
2018-12-31T02:14:31.644Z,13.60
2018-12-31T02:15:31.673Z,15.80
2018-12-31T02:16:31.621Z,17.50
2018-12-31T02:17:31.615Z,18.90
2018-12-31T02:18:31.599Z,14.30
2018-12-31T02:19:31.631Z,15.90
2018-12-31T02:20:31.821Z,12.60
2018-12-31T02:21:31.576Z,13.30
2018-12-31T02:22:31.568Z,17.80
2018-12-31T02:23:31.550Z,17.90
2018-12-31T02:24:31.531Z,14.30
2018-12-31T02:25:31.527Z,18.70
2018-12-31T02:26:31.535Z,16.80
2018-12-31T02:27:31.503Z,13.70
2018-12-31T02:28:31.499Z,15.30
2018-12-31T02:29:31.482Z,15.20
2018-12-31T02:30:31.492Z,17.60
2018-12-31T02:31:31.466Z,13.70
2018-12-31T02:32:31.451Z,20.10
2018-12-31T02:33:31.440Z,13.30
2018-12-31T02:34:31.428Z,16.80
2018-12-31T02:35:31.445Z,16.80
2018-12-31T02:36:31.408Z,17.30
2018-12-31T02:37:31.393Z,16.70
2018-12-31T02:38:31.383Z,19.10
2018-12-31T02:39:31.375Z,20.80
2018-12-31T02:40:31.360Z,20.40
2018-12-31T02:41:31.381Z,17.50
2018-12-31T02:42:31.354Z,18.10
2018-12-31T02:43:31.327Z,14.80
2018-12-31T02:44:31.508Z,16.00
2018-12-31T02:45:31.313Z,20.30
2018-12-31T02:46:31.299Z,16.30
2018-12-31T02:47:31.308Z,20.00
2018-12-31T02:48:31.278Z,14.10
2018-12-31T02:49:31.267Z,20.80
2018-12-31T02:50:31.255Z,20.80
2018-12-31T02:51:31.279Z,14.70
2018-12-31T02:52:31.249Z,21.60
2018-12-31T02:53:31.223Z,18.30
2018-12-31T02:54:31.210Z,18.80
2018-12-31T02:55:31.202Z,26.60
2018-12-31T02:56:31.687Z,22.20
2018-12-31T02:57:31.362Z,18.20
2018-12-31T02:58:31.163Z,18.60
2018-12-31T02:59:31.165Z,18.60
2018-12-31T03:00:31.146Z,18.30
2018-12-31T03:01:31.152Z,18.30
2018-12-31T03:02:31.126Z,16.00
2018-12-31T03:03:31.136Z,21.90
2018-12-31T03:04:31.107Z,20.10
2018-12-31T03:05:31.182Z,21.30
2018-12-31T03:06:31.084Z,18.50
2018-12-31T03:07:31.067Z,17.90
2018-12-31T03:08:31.067Z,19.10
2018-12-31T03:09:31.090Z,17.90
2018-12-31T03:10:31.065Z,17.00
2018-12-31T03:11:31.034Z,19.30
2018-12-31T03:12:31.024Z,16.20
2018-12-31T03:13:31.009Z,19.70
2018-12-31T03:14:30.998Z,17.30
2018-12-31T03:15:31.267Z,14.10
2018-12-31T03:16:30.973Z,19.00
2018-12-31T03:17:30.964Z,16.70
2018-12-31T03:18:30.954Z,16.90
2018-12-31T03:19:30.965Z,18.20
2018-12-31T03:20:30.956Z,17.50
2018-12-31T03:21:30.917Z,22.10
2018-12-31T03:22:30.911Z,20.00
2018-12-31T03:23:30.902Z,20.50
2018-12-31T03:24:30.887Z,15.40
2018-12-31T03:25:30.904Z,20.80
2018-12-31T03:26:30.874Z,18.70
2018-12-31T03:27:31.504Z,16.50
2018-12-31T03:28:30.845Z,17.00
2018-12-31T03:29:30.891Z,18.00
2018-12-31T03:30:31.361Z,19.40
2018-12-31T03:31:30.836Z,16.30
2018-12-31T03:32:30.821Z,16.00
2018-12-31T03:33:30.790Z,21.60
2018-12-31T03:34:31.272Z,20.50
2018-12-31T03:35:30.772Z,17.70
2018-12-31T03:36:30.794Z,13.30
2018-12-31T03:37:30.756Z,18.50
2018-12-31T03:38:30.741Z,20.90
2018-12-31T03:39:30.724Z,14.60
2018-12-31T03:40:30.720Z,18.90
2018-12-31T03:41:30.704Z,18.40
2018-12-31T03:42:30.720Z,16.10
2018-12-31T03:43:30.680Z,16.10
2018-12-31T03:44:30.673Z,18.20
2018-12-31T03:45:30.658Z,15.70
2018-12-31T03:46:30.653Z,17.60
2018-12-31T03:47:30.651Z,19.00
2018-12-31T03:48:30.630Z,19.10
2018-12-31T03:49:30.621Z,16.00
2018-12-31T03:50:30.603Z,19.30
2018-12-31T03:51:30.599Z,19.50
2018-12-31T03:52:30.609Z,16.30
2018-12-31T03:53:30.588Z,16.10
2018-12-31T03:54:30.561Z,20.80
2018-12-31T03:55:30.550Z,17.30
2018-12-31T03:56:30.544Z,22.80
2018-12-31T03:57:30.556Z,15.50
2018-12-31T03:58:30.524Z,23.00
2018-12-31T03:59:30.509Z,17.40
2018-12-31T04:00:30.499Z,18.60
2018-12-31T04:01:30.489Z,19.40
2018-12-31T04:02:30.479Z,19.40
2018-12-31T04:03:30.494Z,17.90
2018-12-31T04:04:30.479Z,17.60
2018-12-31T04:05:30.444Z,18.90
2018-12-31T04:06:30.449Z,17.70
2018-12-31T04:07:30.499Z,24.20
2018-12-31T04:08:30.415Z,20.00
2018-12-31T04:09:30.619Z,16.20
2018-12-31T04:10:30.432Z,18.00
2018-12-31T04:11:30.385Z,18.40
2018-12-31T04:12:30.371Z,17.20
2018-12-31T04:13:30.370Z,20.10
2018-12-31T04:14:30.351Z,19.80
2018-12-31T04:15:31.023Z,19.00
2018-12-31T04:16:30.350Z,17.00
2018-12-31T04:17:30.319Z,21.20
2018-12-31T04:18:30.307Z,20.00
2018-12-31T04:19:30.318Z,18.80
2018-12-31T04:20:30.285Z,21.40
2018-12-31T04:21:30.298Z,16.10
2018-12-31T04:22:30.286Z,17.90
2018-12-31T04:23:30.252Z,21.10
2018-12-31T04:24:30.277Z,22.50
2018-12-31T04:25:30.229Z,20.00
2018-12-31T04:26:30.222Z,17.00
2018-12-31T04:27:30.370Z,19.10
2018-12-31T04:28:30.199Z,20.20
2018-12-31T04:29:30.190Z,21.80
2018-12-31T04:30:30.198Z,20.30
2018-12-31T04:31:30.168Z,22.70
2018-12-31T04:32:30.158Z,21.70
2018-12-31T04:33:30.193Z,22.20
2018-12-31T04:34:30.138Z,19.70
2018-12-31T04:35:30.129Z,23.00
2018-12-31T04:36:30.131Z,23.70
2018-12-31T04:37:30.103Z,19.80
2018-12-31T04:38:30.087Z,20.90
2018-12-31T04:39:30.081Z,20.90
2018-12-31T04:40:30.064Z,23.30
2018-12-31T04:41:31.017Z,28.10
2018-12-31T04:42:30.071Z,28.30
2018-12-31T04:43:30.045Z,23.10
2018-12-31T04:44:30.027Z,21.60
2018-12-31T04:45:30.024Z,24.10
2018-12-31T04:46:30.001Z,19.70
2018-12-31T04:47:30.031Z,23.30
2018-12-31T04:48:29.982Z,19.40
2018-12-31T04:49:29.979Z,22.80
2018-12-31T04:50:29.983Z,23.20
2018-12-31T04:51:29.946Z,19.70
2018-12-31T04:52:29.936Z,24.60
2018-12-31T04:53:29.955Z,26.90
2018-12-31T04:54:29.919Z,22.10
2018-12-31T04:55:29.913Z,22.90
2018-12-31T04:56:29.900Z,24.60
2018-12-31T04:57:29.936Z,28.10
2018-12-31T04:58:29.873Z,27.70
2018-12-31T04:59:29.860Z,28.70
2018-12-31T05:00:29.861Z,25.00
2018-12-31T05:01:29.842Z,24.40
2018-12-31T05:02:29.829Z,26.00
2018-12-31T05:03:29.828Z,21.00
2018-12-31T05:04:29.833Z,22.00
2018-12-31T05:05:29.801Z,22.60
2018-12-31T05:06:29.787Z,23.70
2018-12-31T05:07:29.801Z,28.50
2018-12-31T05:08:29.764Z,23.60
2018-12-31T05:09:29.778Z,23.50
2018-12-31T05:10:29.747Z,24.80
2018-12-31T05:11:29.735Z,22.30
2018-12-31T05:12:29.727Z,25.30
2018-12-31T05:13:29.710Z,22.80
2018-12-31T05:14:29.699Z,27.20
2018-12-31T05:15:29.712Z,24.90
2018-12-31T05:16:29.680Z,19.80
2018-12-31T05:17:29.693Z,24.40
2018-12-31T05:18:29.657Z,23.00
2018-12-31T05:19:29.646Z,21.60
2018-12-31T05:20:29.637Z,23.70
2018-12-31T05:21:29.624Z,20.60
2018-12-31T05:22:29.638Z,25.60
2018-12-31T05:23:29.606Z,23.60
2018-12-31T05:24:29.590Z,27.80
2018-12-31T05:25:29.586Z,21.90
2018-12-31T05:26:29.570Z,23.00
2018-12-31T05:27:29.604Z,23.20
2018-12-31T05:28:29.548Z,19.60
2018-12-31T05:29:29.543Z,26.20
2018-12-31T05:30:29.525Z,23.10
2018-12-31T05:31:29.519Z,22.00
2018-12-31T05:32:29.534Z,20.80
2018-12-31T05:33:29.524Z,25.20
2018-12-31T05:34:29.484Z,22.00
2018-12-31T05:35:29.476Z,23.50
2018-12-31T05:36:29.468Z,22.40
2018-12-31T05:37:29.455Z,25.10
2018-12-31T05:38:29.475Z,24.90
2018-12-31T05:39:29.431Z,22.70
2018-12-31T05:40:29.418Z,19.60
2018-12-31T05:41:29.413Z,25.80
2018-12-31T05:42:29.402Z,24.20
2018-12-31T05:43:29.415Z,24.50
2018-12-31T05:44:29.381Z,25.00
2018-12-31T05:45:29.364Z,26.40
2018-12-31T05:46:29.352Z,30.70
2018-12-31T05:47:29.349Z,23.20
2018-12-31T05:48:29.331Z,28.30
2018-12-31T05:49:29.358Z,22.60
2018-12-31T05:50:29.318Z,25.90
2018-12-31T05:51:29.299Z,26.40
2018-12-31T05:52:29.293Z,29.10
2018-12-31T05:53:29.281Z,22.60
2018-12-31T05:54:29.271Z,24.80
2018-12-31T05:55:29.285Z,24.70
2018-12-31T05:56:29.252Z,23.80
2018-12-31T05:57:29.235Z,28.00
2018-12-31T05:58:29.222Z,25.80
2018-12-31T05:59:29.217Z,23.60
2018-12-31T06:00:29.200Z,23.70
2018-12-31T06:01:29.216Z,21.10
2018-12-31T06:02:29.179Z,18.90
2018-12-31T06:03:29.168Z,20.60
2018-12-31T06:04:29.163Z,19.90
2018-12-31T06:05:29.151Z,26.30
2018-12-31T06:06:29.152Z,22.70
2018-12-31T06:07:29.129Z,19.40
2018-12-31T06:08:29.114Z,21.40
2018-12-31T06:09:29.104Z,19.60
2018-12-31T06:10:29.094Z,22.00
2018-12-31T06:11:29.107Z,24.10
2018-12-31T06:12:29.072Z,21.60
2018-12-31T06:13:29.066Z,22.50
2018-12-31T06:14:29.075Z,18.70
2018-12-31T06:15:29.045Z,20.40
2018-12-31T06:16:29.029Z,21.10
2018-12-31T06:17:29.023Z,20.80
2018-12-31T06:18:29.008Z,20.80
2018-12-31T06:19:29.023Z,18.80
2018-12-31T06:20:28.990Z,21.20
2018-12-31T06:21:28.975Z,21.90
2018-12-31T06:22:28.963Z,22.40
2018-12-31T06:23:28.969Z,23.40
2018-12-31T06:24:28.942Z,22.70
2018-12-31T06:25:28.935Z,17.70
2018-12-31T06:26:28.925Z,22.90
2018-12-31T06:27:28.913Z,18.40
2018-12-31T06:28:28.923Z,21.30
2018-12-31T06:29:28.916Z,25.20
2018-12-31T06:30:28.881Z,18.10
2018-12-31T06:31:28.867Z,24.10
2018-12-31T06:32:28.855Z,20.50
2018-12-31T06:33:28.849Z,24.50
2018-12-31T06:34:28.860Z,20.70
2018-12-31T06:35:28.850Z,20.70
2018-12-31T06:36:28.822Z,21.10
2018-12-31T06:37:28.806Z,23.40
2018-12-31T06:38:28.808Z,26.30
2018-12-31T06:39:28.782Z,21.80
2018-12-31T06:40:28.834Z,27.50
2018-12-31T06:41:28.761Z,21.20
2018-12-31T06:42:28.747Z,20.40
2018-12-31T06:43:28.735Z,22.30
2018-12-31T06:44:28.724Z,21.30
2018-12-31T06:45:28.711Z,22.00
2018-12-31T06:46:28.743Z,21.10
2018-12-31T06:47:28.701Z,22.70
2018-12-31T06:48:28.685Z,20.30
2018-12-31T06:49:28.672Z,22.30
2018-12-31T06:50:28.657Z,24.90
2018-12-31T06:51:28.648Z,26.30
2018-12-31T06:52:28.660Z,25.30
2018-12-31T06:53:28.632Z,24.50
2018-12-31T06:54:28.617Z,26.50
2018-12-31T06:55:28.607Z,31.30
2018-12-31T06:56:28.596Z,24.20
2018-12-31T06:57:28.632Z,28.10
2018-12-31T06:58:28.569Z,25.40
2018-12-31T06:59:28.563Z,23.90
2018-12-31T07:00:28.553Z,30.50
2018-12-31T07:01:28.540Z,38.50
2018-12-31T07:02:28.537Z,32.10
2018-12-31T07:03:28.573Z,29.80
2018-12-31T07:04:28.508Z,28.10
2018-12-31T07:05:28.498Z,31.00
2018-12-31T07:06:28.485Z,33.00
2018-12-31T07:07:28.470Z,29.20
2018-12-31T07:08:28.458Z,24.60
2018-12-31T07:09:28.480Z,28.10
2018-12-31T07:10:28.439Z,29.00
2018-12-31T07:11:28.431Z,28.20
2018-12-31T07:12:28.419Z,30.30
2018-12-31T07:13:29.580Z,31.00
2018-12-31T07:14:28.397Z,31.60
2018-12-31T07:15:28.407Z,37.10
2018-12-31T07:16:28.396Z,35.80
2018-12-31T07:17:28.382Z,32.80
2018-12-31T07:18:28.355Z,32.70
2018-12-31T07:19:28.371Z,36.30
2018-12-31T07:20:28.328Z,30.80
2018-12-31T07:21:28.323Z,27.80
2018-12-31T07:22:28.306Z,31.30
2018-12-31T07:23:28.301Z,32.90
2018-12-31T07:24:28.296Z,36.30
2018-12-31T07:25:28.281Z,31.40
2018-12-31T07:26:28.264Z,27.70
2018-12-31T07:27:28.331Z,24.80
2018-12-31T07:28:28.259Z,31.50
2018-12-31T07:29:28.258Z,34.00
2018-12-31T07:30:28.220Z,34.00
2018-12-31T07:31:28.236Z,31.50
2018-12-31T07:32:28.202Z,30.10
2018-12-31T07:33:28.193Z,32.50
2018-12-31T07:34:28.179Z,31.30
2018-12-31T07:35:28.172Z,31.50
2018-12-31T07:36:28.169Z,27.90
2018-12-31T07:37:28.151Z,43.30
2018-12-31T07:38:28.136Z,33.40
2018-12-31T07:39:28.139Z,33.40
2018-12-31T07:40:28.109Z,31.90
2018-12-31T07:41:28.098Z,32.30
2018-12-31T07:42:28.114Z,30.90
2018-12-31T07:43:28.078Z,28.00
2018-12-31T07:44:28.092Z,37.00
2018-12-31T07:45:28.057Z,37.00
2018-12-31T07:46:28.050Z,33.00
2018-12-31T07:47:28.033Z,36.50
2018-12-31T07:48:28.028Z,36.70
2018-12-31T07:49:28.039Z,32.70
2018-12-31T07:50:28.273Z,36.20
2018-12-31T07:51:27.992Z,33.30
2018-12-31T07:52:27.986Z,35.70
2018-12-31T07:53:27.968Z,39.10
2018-12-31T07:54:27.964Z,31.00
2018-12-31T07:55:27.980Z,34.30
2018-12-31T07:56:27.938Z,32.40
2018-12-31T07:57:27.931Z,31.70
2018-12-31T07:58:27.922Z,35.00
2018-12-31T07:59:27.904Z,33.60
2018-12-31T08:00:27.893Z,33.00
2018-12-31T08:01:27.907Z,34.80
2018-12-31T08:02:27.875Z,34.60
2018-12-31T08:03:27.864Z,34.50
2018-12-31T08:04:27.854Z,39.10
2018-12-31T08:05:27.838Z,39.70
2018-12-31T08:06:27.885Z,30.50
2018-12-31T08:07:27.828Z,34.50
2018-12-31T08:08:27.810Z,34.30
2018-12-31T08:09:27.792Z,33.60
2018-12-31T08:10:27.782Z,30.80
2018-12-31T08:11:27.770Z,34.40
2018-12-31T08:12:27.786Z,33.60
2018-12-31T08:13:27.749Z,36.70
2018-12-31T08:14:27.743Z,36.00
2018-12-31T08:15:27.726Z,32.10
2018-12-31T08:16:27.721Z,33.50
2018-12-31T08:17:27.730Z,31.80
2018-12-31T08:18:27.698Z,32.30
2018-12-31T08:19:27.705Z,30.50
2018-12-31T08:20:27.698Z,31.50
2018-12-31T08:21:27.665Z,29.00
2018-12-31T08:22:27.656Z,30.50
2018-12-31T08:23:27.637Z,32.30
2018-12-31T08:24:27.675Z,27.80
2018-12-31T08:25:27.617Z,32.20
2018-12-31T08:26:27.604Z,30.10
2018-12-31T08:27:27.595Z,29.90
2018-12-31T08:28:27.587Z,30.00
2018-12-31T08:29:27.574Z,30.80
2018-12-31T08:30:27.587Z,27.70
2018-12-31T08:31:27.558Z,28.20
2018-12-31T08:32:27.539Z,26.50
2018-12-31T08:33:27.532Z,29.70
2018-12-31T08:34:27.523Z,26.60
2018-12-31T08:35:27.540Z,27.00
2018-12-31T08:36:27.499Z,25.50
2018-12-31T08:37:27.488Z,82.10
2018-12-31T08:38:27.477Z,28.10
2018-12-31T08:39:27.465Z,28.50
2018-12-31T08:40:27.455Z,25.70
2018-12-31T08:41:27.469Z,26.90
2018-12-31T08:42:27.429Z,24.80
2018-12-31T08:43:27.429Z,28.80
2018-12-31T08:44:27.405Z,23.10
2018-12-31T08:45:27.421Z,29.80
2018-12-31T08:46:27.390Z,23.40
2018-12-31T08:47:27.378Z,28.80
2018-12-31T08:48:27.370Z,27.20
2018-12-31T08:49:27.366Z,24.80
2018-12-31T08:50:27.360Z,24.30
2018-12-31T08:51:27.355Z,27.20
2018-12-31T08:52:27.328Z,27.50
2018-12-31T08:53:27.326Z,29.20
2018-12-31T08:54:27.295Z,29.10
2018-12-31T08:55:27.285Z,25.60
2018-12-31T08:56:27.277Z,26.70
2018-12-31T08:57:27.284Z,28.60
2018-12-31T08:58:27.256Z,25.30
2018-12-31T08:59:27.243Z,24.80
2018-12-31T09:00:27.237Z,20.70
2018-12-31T09:01:27.217Z,27.30
2018-12-31T09:02:27.237Z,25.80
2018-12-31T09:03:27.202Z,27.60
2018-12-31T09:04:27.186Z,26.50
2018-12-31T09:05:27.182Z,29.30
2018-12-31T09:06:27.180Z,26.70
2018-12-31T09:07:27.153Z,30.70
2018-12-31T09:08:27.159Z,25.20
2018-12-31T09:09:27.136Z,22.70
2018-12-31T09:10:27.125Z,25.40
2018-12-31T09:11:27.114Z,26.30
2018-12-31T09:12:27.105Z,26.00
2018-12-31T09:13:27.119Z,23.40
2018-12-31T09:14:27.082Z,22.40
2018-12-31T09:15:27.067Z,25.10
2018-12-31T09:16:27.060Z,25.80
2018-12-31T09:17:27.048Z,30.10
2018-12-31T09:18:27.064Z,34.00
2018-12-31T09:19:27.027Z,28.80
2018-12-31T09:20:28.456Z,29.40
2018-12-31T09:21:27.002Z,30.40
2018-12-31T09:22:27.004Z,29.30
2018-12-31T09:23:26.983Z,26.90
2018-12-31T09:24:26.996Z,27.70
2018-12-31T09:25:26.961Z,24.70
2018-12-31T09:26:26.953Z,27.20
2018-12-31T09:27:26.934Z,22.00
2018-12-31T09:28:26.929Z,31.60
2018-12-31T09:29:26.917Z,24.90
2018-12-31T09:30:26.922Z,30.30
2018-12-31T09:31:26.892Z,28.00
2018-12-31T09:32:26.881Z,29.00
2018-12-31T09:33:26.977Z,26.30
2018-12-31T09:34:26.857Z,28.70
2018-12-31T09:35:26.852Z,28.20
2018-12-31T09:36:26.855Z,28.30
2018-12-31T09:37:26.832Z,29.40
2018-12-31T09:38:26.819Z,28.10
2018-12-31T09:39:26.833Z,31.80
2018-12-31T09:40:26.792Z,30.50
2018-12-31T09:41:26.783Z,29.50
2018-12-31T09:42:26.775Z,31.10
2018-12-31T09:43:26.760Z,29.70
2018-12-31T09:44:26.777Z,39.00
2018-12-31T09:45:26.738Z,30.50
2018-12-31T09:46:26.727Z,30.00
2018-12-31T09:47:26.736Z,28.00
2018-12-31T09:48:26.705Z,29.50
2018-12-31T09:49:26.712Z,26.50
2018-12-31T09:50:26.691Z,28.30
2018-12-31T09:51:26.702Z,25.50
2018-12-31T09:52:26.666Z,28.50
2018-12-31T09:53:26.656Z,28.20
2018-12-31T09:54:26.640Z,26.60
2018-12-31T09:55:26.640Z,30.60
2018-12-31T09:56:26.652Z,27.70
2018-12-31T09:57:26.618Z,29.20
2018-12-31T09:58:26.597Z,30.00
2018-12-31T09:59:26.596Z,26.80
2018-12-31T10:00:26.583Z,25.30
2018-12-31T10:01:26.565Z,26.10
2018-12-31T10:02:26.575Z,24.60
2018-12-31T10:03:26.542Z,29.60
2018-12-31T10:04:26.538Z,30.00
2018-12-31T10:05:26.522Z,28.30
2018-12-31T10:06:26.510Z,24.70
2018-12-31T10:07:26.556Z,26.80
2018-12-31T10:08:26.498Z,27.60
2018-12-31T10:09:26.478Z,24.00
2018-12-31T10:10:26.481Z,21.80
2018-12-31T10:11:26.468Z,23.60
2018-12-31T10:12:26.449Z,28.20
2018-12-31T10:13:26.477Z,28.30
2018-12-31T10:14:26.422Z,19.40
2018-12-31T10:15:26.415Z,20.70
2018-12-31T10:16:26.403Z,24.60
2018-12-31T10:17:26.394Z,23.70
2018-12-31T10:18:26.378Z,24.90
2018-12-31T10:19:26.400Z,25.30
2018-12-31T10:20:26.379Z,19.10
2018-12-31T10:21:26.349Z,22.00
2018-12-31T10:22:26.340Z,17.80
2018-12-31T10:23:26.322Z,21.70
2018-12-31T10:24:26.359Z,20.00
2018-12-31T10:25:26.334Z,24.10
2018-12-31T10:26:26.312Z,24.80
2018-12-31T10:27:26.277Z,23.30
2018-12-31T10:28:26.295Z,23.30
2018-12-31T10:29:26.305Z,20.30
2018-12-31T10:30:26.246Z,20.90
2018-12-31T10:31:26.234Z,16.90
2018-12-31T10:32:26.226Z,20.80
2018-12-31T10:33:26.215Z,23.10
2018-12-31T10:34:26.202Z,34.10
2018-12-31T10:35:26.214Z,21.30
2018-12-31T10:36:26.186Z,19.50
2018-12-31T10:37:26.174Z,19.20
2018-12-31T10:38:26.163Z,21.10
2018-12-31T10:39:26.151Z,22.40
2018-12-31T10:40:27.951Z,18.30
2018-12-31T10:41:26.129Z,22.20
2018-12-31T10:42:26.118Z,19.30
2018-12-31T10:43:26.104Z,22.80
2018-12-31T10:44:26.097Z,15.90
2018-12-31T10:45:26.115Z,17.20
2018-12-31T10:46:26.076Z,22.70
2018-12-31T10:47:26.059Z,18.10
2018-12-31T10:48:26.051Z,20.10
2018-12-31T10:49:26.036Z,22.10
2018-12-31T10:50:26.034Z,20.00
2018-12-31T10:51:26.117Z,17.80
2018-12-31T10:52:26.014Z,16.30
2018-12-31T10:53:25.997Z,19.30
2018-12-31T10:54:25.986Z,19.70
2018-12-31T10:55:25.982Z,16.20
2018-12-31T10:56:25.965Z,20.30
2018-12-31T10:57:25.975Z,14.70
2018-12-31T10:58:25.946Z,19.50
2018-12-31T10:59:25.933Z,17.40
2018-12-31T11:00:26.016Z,18.80
2018-12-31T11:01:25.910Z,18.70
2018-12-31T11:02:25.919Z,18.40
2018-12-31T11:03:25.935Z,13.40
2018-12-31T11:04:25.877Z,16.40
2018-12-31T11:05:25.864Z,18.30
2018-12-31T11:06:25.859Z,18.40
2018-12-31T11:07:25.839Z,18.90
2018-12-31T11:08:25.859Z,19.10
2018-12-31T11:09:25.843Z,17.40
2018-12-31T11:10:25.814Z,19.00
2018-12-31T11:11:25.799Z,23.50
2018-12-31T11:12:25.798Z,23.60
2018-12-31T11:13:25.776Z,22.10
2018-12-31T11:14:25.789Z,19.70
2018-12-31T11:15:25.753Z,18.90
2018-12-31T11:16:25.743Z,19.00
2018-12-31T11:17:25.728Z,19.00
2018-12-31T11:18:25.723Z,17.70
2018-12-31T11:19:25.731Z,18.20
2018-12-31T11:20:25.703Z,17.30
2018-12-31T11:21:25.687Z,17.00
2018-12-31T11:22:25.672Z,15.50
2018-12-31T11:23:25.664Z,21.20
2018-12-31T11:24:25.678Z,17.90
2018-12-31T11:25:25.646Z,17.80
2018-12-31T11:26:25.632Z,21.10
2018-12-31T11:27:25.627Z,19.70
2018-12-31T11:28:25.633Z,23.20
2018-12-31T11:29:25.606Z,20.80
2018-12-31T11:30:25.585Z,17.00
2018-12-31T11:31:30.240Z,17.90
2018-12-31T11:32:26.570Z,20.80
2018-12-31T11:33:25.559Z,20.00
2018-12-31T11:34:25.548Z,15.30
2018-12-31T11:35:25.539Z,15.30
2018-12-31T11:36:25.524Z,17.80
2018-12-31T11:37:25.559Z,18.60
2018-12-31T11:38:25.518Z,19.10
2018-12-31T11:39:25.492Z,21.60
2018-12-31T11:40:25.484Z,22.20
2018-12-31T11:41:25.466Z,19.40
2018-12-31T11:42:25.454Z,19.90
2018-12-31T11:43:25.464Z,17.50
2018-12-31T11:44:25.541Z,20.30
2018-12-31T11:45:25.426Z,17.80
2018-12-31T11:46:25.441Z,18.60
2018-12-31T11:47:25.434Z,16.90
2018-12-31T11:48:25.429Z,17.30
2018-12-31T11:49:25.384Z,16.20
2018-12-31T11:50:25.373Z,15.40
2018-12-31T11:51:25.362Z,17.00
2018-12-31T11:52:25.380Z,15.00
2018-12-31T11:53:25.363Z,20.60
2018-12-31T11:54:25.367Z,17.10
2018-12-31T11:55:25.320Z,12.90
2018-12-31T11:56:25.303Z,16.50
2018-12-31T11:57:25.299Z,16.60
2018-12-31T11:58:25.303Z,17.60
2018-12-31T11:59:25.279Z,15.60
2018-12-31T12:00:25.264Z,18.00
2018-12-31T12:01:25.256Z,16.20
2018-12-31T12:02:25.243Z,14.20
2018-12-31T12:03:25.258Z,14.80
2018-12-31T12:04:25.217Z,16.20
2018-12-31T12:05:25.214Z,15.80
2018-12-31T12:06:25.200Z,15.90
2018-12-31T12:07:25.185Z,14.40
2018-12-31T12:08:25.202Z,15.10
2018-12-31T12:09:25.166Z,14.30
2018-12-31T12:10:25.153Z,15.30
2018-12-31T12:11:25.162Z,13.80
2018-12-31T12:12:25.129Z,12.50
2018-12-31T12:13:25.169Z,15.90
2018-12-31T12:14:25.115Z,15.40
2018-12-31T12:15:25.098Z,20.20
2018-12-31T12:16:25.095Z,16.70
2018-12-31T12:17:25.082Z,14.20
2018-12-31T12:18:25.072Z,13.70
2018-12-31T12:19:25.097Z,13.00
2018-12-31T12:20:25.051Z,11.70
2018-12-31T12:21:25.042Z,11.20
2018-12-31T12:22:25.023Z,12.00
2018-12-31T12:23:25.025Z,14.50
2018-12-31T12:24:25.001Z,15.60
2018-12-31T12:25:25.018Z,13.30
2018-12-31T12:26:24.980Z,13.50
2018-12-31T12:27:24.970Z,22.40
2018-12-31T12:28:24.964Z,13.30
2018-12-31T12:29:24.955Z,15.30
2018-12-31T12:30:25.008Z,18.90
2018-12-31T12:31:24.930Z,15.30
2018-12-31T12:32:24.915Z,17.60
2018-12-31T12:33:24.919Z,15.80
2018-12-31T12:34:25.056Z,14.80
2018-12-31T12:35:24.924Z,16.40
2018-12-31T12:36:24.872Z,14.90
2018-12-31T12:37:24.877Z,21.40
2018-12-31T12:38:24.855Z,15.80
2018-12-31T12:39:24.845Z,15.30
2018-12-31T12:40:24.830Z,18.00
2018-12-31T12:41:24.870Z,18.40
2018-12-31T12:42:24.811Z,12.80
2018-12-31T12:43:24.803Z,18.00
2018-12-31T12:44:24.792Z,18.70
2018-12-31T12:45:24.781Z,14.50
2018-12-31T12:46:24.790Z,11.60
2018-12-31T12:47:24.792Z,15.40
2018-12-31T12:48:24.768Z,15.80
2018-12-31T12:49:24.731Z,14.80
2018-12-31T12:50:24.720Z,12.00
2018-12-31T12:51:24.744Z,14.10
2018-12-31T12:52:24.697Z,16.40